• Join FlightAware (Why Join?)
  • Login
  • US Flag 
06:26PM EDT


 

Airport Tracker/Info


-or-


 

Live Flight TrackerFlight Track Log ✈ DAL6035 ✈ 24-Apr-2013 ✈ KMHT - KLGA

Flight Track Log - Related Links

Times and Time Zones

All times are in EDT time to prevent confusion due to time zone crossing. See the DAL6035 flight status page for this flight to view local times or setup timezone preferences in your user account.

Time Position Orientation Groundspeed Altitude Reporting Facility
EDT Latitude Longitude Course Direction KTS MPH feet Rate Location/Type
02:07PM 42.9500 -71.4333 262° West 166 191 1,000  Level KA90
02:09PM 43.0333 -71.4833 336° Northwest 215 247 4,600 2,220 Climbing KA90
02:10PM 43.0578 -71.5733 290° West 206 237 7,100 2,100 Climbing Boston Center
02:11PM 42.6552 -71.7624 236° Southwest  Level Estimated
02:11PM 43.0731 -71.6556 284° West 226 260 9,200  Level Boston Center
02:12PM 42.5856 -71.8436 231° Southwest  Level Estimated
02:12PM 43.0944 -71.7633 285° West 263 303 10,000  Level Boston Center
02:13PM 42.5733 -71.9671 262° West  Level FlightAware Approximate
02:13PM 43.1158 -71.8656 286° West 302 348 10,000  Level Boston Center
02:14PM 43.1144 -71.9908 269° West 300 345 11,300 1,620 Climbing Boston Center
02:16PM 43.0271 -72.0642 212° Southwest  Level Estimated
02:16PM 42.9878 -72.1564 212° Southwest 304 350 15,000  Level Boston Center
02:17PM 42.9253 -72.2358 223° Southwest 327 376 15,000  Level Boston Center
02:18PM 42.8589 -72.3239 224° Southwest 333 383 15,000  Level Boston Center
02:19PM 42.7881 -72.4147 223° Southwest 338 389 15,000  Level Boston Center
02:20PM 42.7214 -72.5022 224° Southwest 338 389 15,100 480 Climbing Boston Center
02:21PM 42.6586 -72.5842 224° Southwest 338 389 16,000 420 Climbing Boston Center
02:22PM 42.5878 -72.6686 221° Southwest 320 368 16,000 -240 Level Boston Center
02:23PM 42.5208 -72.7556 224° Southwest 320 368 15,600 -780 Descending Boston Center
02:24PM 42.4475 -72.8453 222° Southwest 334 384 14,500 -840 Descending Boston Center
02:25PM 42.3786 -72.9347 224° Southwest 354 407 14,000 -300 Descending Boston Center
02:26PM 42.3092 -73.0239 224° Southwest 354 407 14,000  Level Boston Center
02:27PM 42.2589 -73.1050 230° Southwest 307 353 14,000  Level Boston Center
02:28PM 42.2500 -73.2031 263° West 264 304 14,000  Level Boston Center
02:29PM 42.2450 -73.3094 266° West 273 314 14,000  Level Boston Center
02:30PM 42.2378 -73.4158 265° West 280 322 14,000  Level Boston Center
02:31PM 42.2306 -73.5167 265° West 285 328 14,000  Level Boston Center
02:32PM 42.2233 -73.6233 265° West 285 328 14,000  Level Boston Center
02:33PM 42.2078 -73.7125 257° West 277 319 14,000  Level Boston Center
02:34PM 42.1367 -73.7392 196° South 230 265 14,000  Level Boston Center
02:35PM 42.0572 -73.7542 188° South 268 308 14,000  Level Boston Center
02:36PM 41.9783 -73.7275 166° South 292 336 14,000 -420 Level Boston Center
02:37PM 41.9544 -73.6350 109° East 292 336 13,200 -540 Descending Boston Center
02:38PM 41.9181 -73.5031 110° East 310 357 13,000 -120 Descending Boston Center
02:39PM 41.8514 -73.5214 192° South 198 228 13,000  Level Boston Center
02:40PM 41.8753 -73.6250 287° West 136 157 13,000  Level Boston Center
02:41PM 41.8931 -73.7147 285° West 212 244 13,000  Level Boston Center
02:42PM 41.8922 -73.7956 269° West 223 257 13,000  Level Boston Center
02:43PM 41.8317 -73.7969 181° South 170 196 13,000  Level Boston Center
02:44PM 41.7692 -73.7872 173° South 221 254 13,000  Level Boston Center
02:45PM 41.6983 -73.7997 188° South 235 270 13,000  Level Boston Center
02:46PM 41.6417 -73.8206 195° South 235 270 13,000  Level Boston Center
02:47PM 41.5769 -73.8386 192° South 235 270 13,000  Level Boston Center
02:48PM 41.5225 -73.8542 192° South 229 264 13,000  Level Boston Center
02:49PM 41.4556 -73.8775 195° South 224 258 13,000  Level Boston Center
02:50PM 41.4050 -73.9069 204° Southwest 224 258 13,000  Level Boston Center
02:51PM 41.4167 -73.9764 283° West 164 189 13,000  Level Boston Center
02:52PM 41.4792 -73.9722 North 216 249 13,000  Level Boston Center
02:53PM 41.5567 -73.9575 North 237 273 13,000  Level Boston Center
02:54PM 41.6192 -73.9425 10° North 244 281 13,000  Level Boston Center
02:55PM 41.6286 -73.8592 81° East 204 235 13,000 -420 Level Boston Center
02:56PM 41.5703 -73.8581 179° South 161 185 12,200 -480 Descending Boston Center
02:57PM 41.5056 -73.8703 188° South 199 229 12,000 -120 Descending Boston Center
02:58PM 41.4344 -73.8856 189° South 220 253 12,000  Level Boston Center
02:59PM 41.3944 -73.9317 221° Southwest 192 221 12,000  Level Boston Center
03:00PM 41.4481 -73.9772 328° Northwest 124 143 12,000  Level Boston Center
03:01PM 41.5128 -73.9619 10° North 217 250 12,000  Level Boston Center
03:02PM 41.5900 -73.9472 North 243 280 12,000  Level Boston Center
03:04PM 41.6364 -73.9094 31° Northeast 228 262 12,000  Level Boston Center
03:05PM 41.5831 -73.8528 142° Southeast 96 110 12,000  Level Boston Center
03:06PM 41.5347 -73.8656 191° South 152 175 12,000  Level Boston Center
03:07PM 41.4597 -73.8778 187° South 224 258 12,000  Level Boston Center
03:08PM 41.4031 -73.9097 203° Southwest 217 250 12,000  Level Boston Center
03:09PM 41.4189 -73.9708 289° West 175 201 12,000  Level Boston Center
03:10PM 41.4919 -73.9669 North 179 206 12,000  Level Boston Center
03:11PM 41.5503 -73.9547 North 229 264 12,000  Level Boston Center
03:12PM 41.6214 -73.9369 11° North 239 275 12,000  Level Boston Center
03:13PM 41.6328 -73.8650 78° East 165 190 12,000  Level Boston Center
03:14PM 41.5703 -73.8553 173° South 140 161 12,000  Level Boston Center
03:15PM 41.5181 -73.8653 188° South 193 222 12,000  Level Boston Center
03:16PM 41.4533 -73.8803 190° South 218 251 12,000  Level Boston Center
03:17PM 41.4008 -73.9097 203° Southwest 216 249 12,000  Level Boston Center
03:18PM 41.4208 -73.9792 291° West 147 169 12,000  Level Boston Center
03:19PM 41.4772 -73.9750 North 134 154 12,000  Level Boston Center
03:20PM 41.5442 -73.9600 10° North 211 243 12,000  Level Boston Center
03:21PM 41.5983 -73.9475 10° North 222 255 12,000  Level Boston Center
03:22PM 41.6428 -73.8900 44° Northeast 199 229 12,000 -180 Level Boston Center
03:23PM 41.6017 -73.8503 144° Southeast 136 157 11,700 -420 Descending Boston Center
03:24PM 41.5411 -73.8628 189° South 171 197 11,200 -360 Descending Boston Center
03:25PM 41.4911 -73.8700 186° South 203 234 11,000 -120 Descending Boston Center
03:26PM 41.4333 -73.8833 190° South 191 220 11,000 -420 Level New York TRACON
03:27PM 41.3833 -73.8333 143° Southeast 238 274 10,200 -1,020 Descending New York TRACON
03:28PM 41.3333 -73.7833 143° Southeast 238 274 9,000 -1,140 Descending New York TRACON
03:29PM 41.2667 -73.7333 151° Southeast 228 262 8,000 -960 Descending New York TRACON
03:30PM 41.2333 -73.6833 132° Southeast 243 280 7,100 -960 Descending New York TRACON
03:31PM 41.2167 -73.5833 102° East 235 270 6,100 -1,020 Descending New York TRACON
03:32PM 41.1833 -73.5667 159° South 186 214 5,100 -900 Descending New York TRACON
03:33PM 41.1333 -73.5833 194° South 172 198 4,300 -600 Descending New York TRACON
03:34PM 41.1000 -73.6167 217° Southwest 164 189 4,000 -120 Descending New York TRACON
03:35PM 41.0500 -73.6500 207° Southwest 160 184 4,100  Climbing New York TRACON
03:36PM 41.0167 -73.6833 217° Southwest 156 180 4,000  Descending New York TRACON
03:37PM 40.9833 -73.7167 217° Southwest 150 173 4,100 -180 Climbing New York TRACON
03:38PM 40.9500 -73.7333 201° Southwest 154 177 3,700 -600 Descending New York TRACON
03:39PM 40.9167 -73.7667 217° Southwest 145 167 3,000 -780 Descending New York TRACON
03:40PM 40.8833 -73.8000 217° Southwest 147 169 2,200 -840 Descending New York TRACON